createdAt,value
2019-03-15T00:02:25.811Z,5.10
2019-03-15T00:04:52.247Z,5.10
2019-03-15T00:07:18.678Z,5.20
2019-03-15T00:09:45.107Z,5.10
2019-03-15T00:12:11.632Z,5.10
2019-03-15T00:14:38.037Z,5.10
2019-03-15T00:17:04.400Z,5.10
2019-03-15T00:19:30.756Z,5.10
2019-03-15T00:21:57.179Z,5.20
2019-03-15T00:24:23.528Z,5.20
2019-03-15T00:26:49.985Z,5.20
2019-03-15T00:29:16.360Z,5.20
2019-03-15T00:31:42.725Z,5.20
2019-03-15T00:34:09.125Z,5.10
2019-03-15T00:36:35.603Z,5.10
2019-03-15T00:39:03.882Z,5.10
2019-03-15T00:41:30.215Z,5.20
2019-03-15T00:43:56.591Z,5.10
2019-03-15T00:46:22.952Z,5.20
2019-03-15T00:48:49.343Z,5.10
2019-03-15T00:51:15.781Z,5.10
2019-03-15T00:53:42.213Z,5.10
2019-03-15T00:56:08.622Z,5.00
2019-03-15T00:58:35.043Z,5.00
2019-03-15T01:01:01.422Z,5.00
2019-03-15T01:03:27.837Z,5.00
2019-03-15T01:05:54.271Z,5.00
2019-03-15T01:08:20.652Z,5.00
2019-03-15T01:10:47.024Z,5.10
2019-03-15T01:13:13.426Z,5.00
2019-03-15T01:15:39.750Z,5.00
2019-03-15T01:18:06.166Z,5.00
2019-03-15T01:20:32.518Z,5.00
2019-03-15T01:22:58.927Z,5.00
2019-03-15T01:25:25.236Z,5.00
2019-03-15T01:27:51.616Z,4.90
2019-03-15T01:30:17.966Z,5.00
2019-03-15T01:32:44.345Z,5.00
2019-03-15T01:35:10.678Z,5.00
2019-03-15T01:37:37.095Z,5.00
2019-03-15T01:40:05.931Z,4.90
2019-03-15T01:42:32.313Z,5.00
2019-03-15T01:44:58.720Z,5.00
2019-03-15T01:47:25.173Z,5.00
2019-03-15T01:49:52.610Z,5.00
2019-03-15T01:52:18.991Z,5.00
2019-03-15T01:54:45.374Z,5.00
2019-03-15T01:57:11.784Z,5.00
2019-03-15T01:59:38.174Z,5.00
2019-03-15T02:02:04.612Z,4.90
2019-03-15T02:04:31.785Z,5.00
2019-03-15T02:06:58.652Z,5.00
2019-03-15T02:09:25.144Z,4.90
2019-03-15T02:11:51.520Z,4.90
2019-03-15T02:14:19.164Z,4.90
2019-03-15T02:16:45.647Z,5.10
2019-03-15T02:19:12.095Z,4.90
2019-03-15T02:21:38.453Z,4.90
2019-03-15T02:24:04.893Z,4.90
2019-03-15T02:26:31.301Z,4.80
2019-03-15T02:28:57.694Z,4.80
2019-03-15T02:31:24.092Z,4.70
2019-03-15T02:33:50.509Z,4.80
2019-03-15T02:36:16.859Z,4.80
2019-03-15T02:38:43.241Z,4.70
2019-03-15T02:41:09.583Z,4.80
2019-03-15T02:43:36.034Z,4.80
2019-03-15T02:46:02.382Z,4.70
2019-03-15T02:48:28.840Z,4.70
2019-03-15T02:50:56.195Z,4.70
2019-03-15T02:53:22.727Z,4.70
2019-03-15T02:55:49.135Z,4.70
2019-03-15T02:58:15.556Z,4.60
2019-03-15T03:00:41.950Z,4.80
2019-03-15T03:03:08.405Z,4.70
2019-03-15T03:05:34.791Z,4.70
2019-03-15T03:08:01.277Z,4.70
2019-03-15T03:10:29.150Z,4.70
2019-03-15T03:12:55.825Z,4.70
2019-03-15T03:15:22.255Z,4.70
2019-03-15T03:17:48.632Z,4.80
2019-03-15T03:20:15.094Z,4.80
2019-03-15T03:22:41.531Z,4.90
2019-03-15T03:25:07.873Z,4.80
2019-03-15T03:27:34.390Z,4.90
2019-03-15T03:30:00.764Z,4.90
2019-03-15T03:32:27.196Z,4.90
2019-03-15T03:34:53.672Z,4.90
2019-03-15T03:37:20.063Z,4.90
2019-03-15T03:39:46.433Z,4.90
2019-03-15T03:42:12.825Z,5.00
2019-03-15T03:44:39.219Z,5.00
2019-03-15T03:47:05.620Z,5.00
2019-03-15T03:49:32.003Z,5.00
2019-03-15T03:51:58.479Z,5.10
2019-03-15T03:54:25.268Z,5.00
2019-03-15T03:56:51.645Z,5.00
2019-03-15T03:59:18.016Z,5.00
2019-03-15T04:01:44.403Z,5.00
2019-03-15T04:04:10.789Z,5.00
2019-03-15T04:06:37.306Z,5.00
2019-03-15T04:09:05.694Z,5.00
2019-03-15T04:11:32.104Z,5.00
2019-03-15T04:13:58.569Z,5.00
2019-03-15T04:16:24.972Z,5.00
2019-03-15T04:18:51.382Z,5.00
2019-03-15T04:21:17.770Z,4.90
2019-03-15T04:23:44.164Z,5.00
2019-03-15T04:26:10.513Z,5.00
2019-03-15T04:28:36.901Z,5.00
2019-03-15T04:31:03.323Z,5.00
2019-03-15T04:33:29.756Z,5.00
2019-03-15T04:35:56.191Z,5.00
2019-03-15T04:38:22.580Z,5.00
2019-03-15T04:40:49.006Z,5.00
2019-03-15T04:43:15.417Z,5.00
2019-03-15T04:45:41.864Z,5.00
2019-03-15T04:48:08.310Z,4.90
2019-03-15T04:50:34.707Z,5.00
2019-03-15T04:53:01.172Z,5.00
2019-03-15T04:55:27.572Z,5.00
2019-03-15T04:57:53.945Z,5.00
2019-03-15T05:00:20.350Z,5.00
2019-03-15T05:02:46.752Z,5.00
2019-03-15T05:05:13.177Z,4.90
2019-03-15T05:07:39.553Z,5.00
2019-03-15T05:10:07.861Z,4.90
2019-03-15T05:12:34.313Z,5.00
2019-03-15T05:15:00.830Z,4.90
2019-03-15T05:17:28.304Z,4.90
2019-03-15T05:19:54.694Z,5.00
2019-03-15T05:22:21.101Z,5.00
2019-03-15T05:24:47.431Z,5.00
2019-03-15T05:27:13.795Z,4.90
2019-03-15T05:29:40.115Z,4.90
2019-03-15T05:32:06.491Z,5.00
2019-03-15T05:34:32.935Z,4.90
2019-03-15T05:36:59.397Z,4.90
2019-03-15T05:39:25.792Z,4.90
2019-03-15T05:41:52.213Z,4.90
2019-03-15T05:44:18.561Z,4.90
2019-03-15T05:46:44.992Z,4.90
2019-03-15T05:49:11.401Z,4.90
2019-03-15T05:51:37.804Z,4.90
2019-03-15T05:54:04.252Z,4.80
2019-03-15T05:56:30.712Z,4.90
2019-03-15T05:58:57.161Z,4.90
2019-03-15T06:01:23.560Z,5.00
2019-03-15T06:03:49.986Z,5.00
2019-03-15T06:06:16.362Z,4.90
2019-03-15T06:08:42.736Z,4.90
2019-03-15T06:11:09.164Z,4.90
2019-03-15T06:13:35.527Z,4.90
2019-03-15T06:16:01.941Z,4.90
2019-03-15T06:18:29.454Z,4.90
2019-03-15T06:20:55.796Z,4.90
2019-03-15T06:23:22.238Z,4.90
2019-03-15T06:25:48.619Z,5.00
2019-03-15T06:28:15.105Z,5.00
2019-03-15T06:30:41.460Z,5.00
2019-03-15T06:33:07.912Z,5.00
2019-03-15T06:35:34.332Z,5.00
2019-03-15T06:38:00.808Z,5.00
2019-03-15T06:40:28.313Z,5.00
2019-03-15T06:42:54.750Z,5.00
2019-03-15T06:45:21.165Z,5.10
2019-03-15T06:47:47.593Z,5.30
2019-03-15T06:50:14.053Z,5.40
2019-03-15T06:52:40.423Z,5.60
2019-03-15T06:55:07.840Z,5.80
2019-03-15T06:57:34.209Z,5.90
2019-03-15T07:00:00.619Z,6.10
2019-03-15T07:02:27.045Z,6.20
2019-03-15T07:04:54.191Z,6.40
2019-03-15T07:07:20.805Z,6.40
2019-03-15T07:09:47.228Z,6.50
2019-03-15T07:12:13.653Z,6.40
2019-03-15T07:14:40.109Z,6.40
2019-03-15T07:17:06.536Z,6.40
2019-03-15T07:19:32.980Z,6.30
2019-03-15T07:21:59.484Z,6.30
2019-03-15T07:24:25.877Z,6.30
2019-03-15T07:26:52.266Z,6.40
2019-03-15T07:29:19.750Z,6.40
2019-03-15T07:31:46.303Z,6.30
2019-03-15T07:34:14.224Z,6.20
2019-03-15T07:36:40.729Z,6.20
2019-03-15T07:39:07.097Z,6.20
2019-03-15T07:41:33.485Z,6.10
2019-03-15T07:44:00.944Z,6.20
2019-03-15T07:46:27.543Z,6.10
2019-03-15T07:48:53.875Z,6.20
2019-03-15T07:51:20.290Z,6.20
2019-03-15T07:53:46.659Z,6.40
2019-03-15T07:56:13.097Z,6.60
2019-03-15T07:58:39.542Z,6.80
2019-03-15T08:01:05.981Z,6.90
2019-03-15T08:03:32.420Z,7.10
2019-03-15T08:05:58.881Z,7.00
2019-03-15T08:08:25.418Z,7.00
2019-03-15T08:10:54.830Z,7.00
2019-03-15T08:13:20.068Z,7.10
2019-03-15T08:15:46.580Z,7.10
2019-03-15T08:18:13.032Z,7.20
2019-03-15T08:20:39.435Z,7.00
2019-03-15T08:23:08.469Z,7.00
2019-03-15T08:25:34.067Z,7.10
2019-03-15T08:28:00.444Z,7.10
2019-03-15T08:30:26.891Z,7.20
2019-03-15T08:32:53.363Z,7.30
2019-03-15T08:35:19.795Z,7.40
2019-03-15T08:37:46.844Z,7.60
2019-03-15T08:40:13.865Z,7.80
2019-03-15T08:42:40.265Z,7.80
2019-03-15T08:45:10.243Z,7.80
2019-03-15T08:47:36.587Z,7.70
2019-03-15T08:50:06.301Z,7.70
2019-03-15T08:52:32.660Z,7.80
2019-03-15T08:55:05.185Z,7.90
2019-03-15T08:57:27.208Z,7.80
2019-03-15T08:59:57.504Z,7.70
2019-03-15T09:02:21.809Z,7.60
2019-03-15T09:04:50.472Z,7.60
2019-03-15T09:07:16.513Z,7.40
2019-03-15T09:09:42.933Z,7.30
2019-03-15T09:12:09.244Z,7.20
2019-03-15T09:14:35.612Z,7.20
2019-03-15T09:17:01.950Z,7.40
2019-03-15T09:19:28.529Z,7.50
2019-03-15T09:21:54.985Z,7.50
2019-03-15T09:24:21.366Z,7.70
2019-03-15T09:26:47.713Z,7.70
2019-03-15T09:29:14.112Z,7.90
2019-03-15T09:31:47.476Z,7.90
2019-03-15T09:34:08.764Z,8.00
2019-03-15T09:36:49.035Z,8.00
2019-03-15T09:39:04.749Z,8.00
2019-03-15T09:41:39.098Z,8.10
2019-03-15T09:43:59.391Z,8.00
2019-03-15T09:46:25.852Z,7.90
2019-03-15T09:48:52.729Z,7.80
2019-03-15T09:51:19.317Z,7.70
2019-03-15T09:53:45.682Z,7.70
2019-03-15T09:56:12.115Z,7.60
2019-03-15T09:58:38.554Z,7.60
2019-03-15T10:01:05.304Z,7.60
2019-03-15T10:03:32.129Z,7.60
2019-03-15T10:05:58.546Z,7.60
2019-03-15T10:08:25.006Z,7.70
2019-03-15T10:10:51.406Z,7.80
2019-03-15T10:13:17.835Z,7.70
2019-03-15T10:15:44.345Z,7.80
2019-03-15T10:18:10.660Z,7.80
2019-03-15T10:20:37.069Z,7.90
2019-03-15T10:23:06.276Z,8.10
2019-03-15T10:25:31.673Z,8.10
2019-03-15T10:27:58.098Z,8.00
2019-03-15T10:30:24.530Z,8.10
2019-03-15T10:32:50.975Z,8.10
2019-03-15T10:35:17.393Z,8.10
2019-03-15T10:37:43.818Z,8.10
2019-03-15T10:40:21.887Z,8.10
2019-03-15T10:42:48.437Z,8.00
2019-03-15T10:45:15.036Z,8.10
2019-03-15T10:47:42.609Z,8.10
2019-03-15T10:50:16.662Z,8.10
2019-03-15T10:52:43.053Z,8.00
2019-03-15T10:55:09.660Z,8.20
2019-03-15T10:57:36.127Z,8.20
2019-03-15T11:00:05.691Z,8.50
2019-03-15T11:02:32.167Z,8.80
2019-03-15T11:04:58.666Z,8.90
2019-03-15T11:07:25.115Z,8.90
2019-03-15T11:09:51.515Z,8.90
2019-03-15T11:12:17.928Z,8.70
2019-03-15T11:14:44.395Z,8.60
2019-03-15T11:17:10.880Z,8.60
2019-03-15T11:19:37.412Z,8.90
2019-03-15T11:22:03.855Z,9.00
2019-03-15T11:24:30.295Z,9.30
2019-03-15T11:26:56.761Z,9.70
2019-03-15T11:29:23.133Z,9.80
2019-03-15T11:31:49.582Z,9.80
2019-03-15T11:34:16.036Z,9.90
2019-03-15T11:36:42.503Z,10.10
2019-03-15T11:39:08.980Z,10.30
2019-03-15T11:41:35.385Z,10.10
2019-03-15T11:44:01.832Z,9.80
2019-03-15T11:46:28.246Z,9.20
2019-03-15T11:48:54.774Z,8.80
2019-03-15T11:51:21.218Z,8.60
2019-03-15T11:53:47.673Z,8.30
2019-03-15T11:56:26.207Z,8.30
2019-03-15T11:58:42.356Z,8.60
2019-03-15T12:01:08.757Z,8.90
2019-03-15T12:03:35.407Z,9.30
2019-03-15T12:06:01.841Z,9.60
2019-03-15T12:08:28.293Z,9.80
2019-03-15T12:10:54.769Z,9.90
2019-03-15T12:13:21.164Z,10.00
2019-03-15T12:15:47.668Z,10.20
2019-03-15T12:18:14.044Z,10.50
2019-03-15T12:20:40.442Z,10.40
2019-03-15T12:23:06.874Z,10.20
2019-03-15T12:25:33.285Z,9.80
2019-03-15T12:27:59.686Z,9.50
2019-03-15T12:30:26.167Z,9.20
2019-03-15T12:32:52.575Z,8.90
2019-03-15T12:35:18.994Z,8.50
2019-03-15T12:37:45.431Z,8.40
2019-03-15T12:40:14.299Z,8.40
2019-03-15T12:42:40.721Z,8.30
2019-03-15T12:45:11.100Z,8.20
2019-03-15T12:47:37.652Z,8.20
2019-03-15T12:50:06.587Z,8.30
2019-03-15T12:52:41.950Z,8.40
2019-03-15T12:55:01.812Z,8.40
2019-03-15T12:57:28.240Z,8.40
2019-03-15T12:59:54.635Z,8.50
2019-03-15T13:02:21.036Z,8.50
2019-03-15T13:04:47.433Z,8.40
2019-03-15T13:07:13.936Z,8.40
2019-03-15T13:09:40.398Z,8.60
2019-03-15T13:12:06.918Z,9.00
2019-03-15T13:14:34.298Z,9.40
2019-03-15T13:17:00.722Z,9.90
2019-03-15T13:19:27.135Z,10.40
2019-03-15T13:21:53.547Z,10.60
2019-03-15T13:24:20.288Z,10.60
2019-03-15T13:26:46.782Z,10.20
2019-03-15T13:29:13.230Z,10.00
2019-03-15T13:31:39.686Z,9.90
2019-03-15T13:34:06.149Z,9.50
2019-03-15T13:36:32.660Z,8.90
2019-03-15T13:38:59.063Z,8.20
2019-03-15T13:41:25.492Z,7.90
2019-03-15T13:43:51.937Z,7.80
2019-03-15T13:46:18.370Z,7.60
2019-03-15T13:48:44.870Z,7.50
2019-03-15T13:51:11.379Z,7.40
2019-03-15T13:53:37.906Z,7.40
2019-03-15T13:56:04.345Z,7.50
2019-03-15T13:58:30.890Z,7.50
2019-03-15T14:00:57.246Z,7.60
2019-03-15T14:03:24.060Z,7.60
2019-03-15T14:05:50.590Z,7.80
2019-03-15T14:08:18.147Z,7.80
2019-03-15T14:10:49.524Z,7.80
2019-03-15T14:13:13.760Z,7.90
2019-03-15T14:15:40.209Z,7.90
2019-03-15T14:18:07.197Z,7.90
2019-03-15T14:20:33.637Z,8.00
2019-03-15T14:23:00.068Z,8.10
2019-03-15T14:25:28.669Z,8.30
2019-03-15T14:27:55.129Z,8.40
2019-03-15T14:30:21.584Z,8.40
2019-03-15T14:32:48.151Z,8.50
2019-03-15T14:35:14.590Z,8.60
2019-03-15T14:37:41.063Z,8.60
2019-03-15T14:40:09.432Z,8.80
2019-03-15T14:42:35.979Z,8.70
2019-03-15T14:45:04.505Z,8.80
2019-03-15T14:47:31.293Z,8.90
2019-03-15T14:49:58.875Z,8.90
2019-03-15T14:52:25.288Z,8.90
2019-03-15T14:54:51.749Z,8.90
2019-03-15T14:57:18.152Z,8.90
2019-03-15T14:59:44.605Z,8.90
2019-03-15T15:02:11.128Z,8.90
2019-03-15T15:04:37.599Z,8.80
2019-03-15T15:07:04.027Z,8.60
2019-03-15T15:09:30.462Z,8.50
2019-03-15T15:11:56.878Z,8.50
2019-03-15T15:14:23.347Z,8.40
2019-03-15T15:16:50.861Z,8.30
2019-03-15T15:19:17.280Z,8.20
2019-03-15T15:21:43.803Z,8.20
2019-03-15T15:24:10.140Z,8.20
2019-03-15T15:26:36.529Z,8.10
2019-03-15T15:29:02.947Z,8.10
2019-03-15T15:31:29.285Z,7.90
2019-03-15T15:33:58.653Z,7.80
2019-03-15T15:36:23.894Z,7.60
2019-03-15T15:38:50.314Z,7.60
2019-03-15T15:41:16.739Z,7.50
2019-03-15T15:43:43.248Z,7.50
2019-03-15T15:46:09.690Z,7.60
2019-03-15T15:48:36.107Z,7.60
2019-03-15T15:51:02.547Z,7.60
2019-03-15T15:53:30.011Z,7.80
2019-03-15T15:55:56.400Z,7.80
2019-03-15T15:58:22.760Z,7.90
2019-03-15T16:00:49.197Z,7.90
2019-03-15T16:03:15.644Z,7.90
2019-03-15T16:05:42.062Z,7.90
2019-03-15T16:08:08.523Z,7.90
2019-03-15T16:10:34.951Z,7.80
2019-03-15T16:13:02.742Z,7.80
2019-03-15T16:15:29.648Z,7.70
2019-03-15T16:17:56.171Z,7.70
2019-03-15T16:20:22.605Z,7.60
2019-03-15T16:22:49.159Z,7.60
2019-03-15T16:25:15.573Z,7.60
2019-03-15T16:27:43.138Z,7.60
2019-03-15T16:30:16.889Z,7.60
2019-03-15T16:32:43.428Z,7.60
2019-03-15T16:35:11.957Z,7.50
2019-03-15T16:37:38.373Z,7.60
2019-03-15T16:40:10.036Z,7.60
2019-03-15T16:42:36.478Z,7.50
2019-03-15T16:45:15.265Z,7.50
2019-03-15T16:47:41.708Z,7.50
2019-03-15T16:50:10.385Z,7.50
2019-03-15T16:52:37.966Z,7.50
2019-03-15T16:55:07.649Z,7.50
2019-03-15T16:57:34.027Z,7.40
2019-03-15T17:00:00.425Z,7.40
2019-03-15T17:02:26.793Z,7.50
2019-03-15T17:04:53.223Z,7.50
2019-03-15T17:07:19.546Z,7.50
2019-03-15T17:09:46.047Z,7.50
2019-03-15T17:12:12.361Z,7.40
2019-03-15T17:14:38.793Z,7.40
2019-03-15T17:17:05.264Z,7.40
2019-03-15T17:19:31.702Z,7.30
2019-03-15T17:21:58.121Z,7.20
2019-03-15T17:24:24.637Z,7.20
2019-03-15T17:26:51.634Z,7.10
2019-03-15T17:29:18.248Z,7.10
2019-03-15T17:31:45.246Z,7.00
2019-03-15T17:34:11.737Z,7.00
2019-03-15T17:36:38.176Z,6.90
2019-03-15T17:39:05.768Z,6.90
2019-03-15T17:41:33.000Z,6.90
2019-03-15T17:43:59.487Z,6.80
2019-03-15T17:46:26.028Z,6.80
2019-03-15T17:48:52.428Z,6.80
2019-03-15T17:51:20.777Z,6.80
2019-03-15T17:53:47.357Z,6.80
2019-03-15T17:56:14.008Z,6.80
2019-03-15T17:58:40.466Z,6.80
2019-03-15T18:01:07.705Z,6.70
2019-03-15T18:03:34.518Z,6.70
2019-03-15T18:06:00.960Z,6.60
2019-03-15T18:08:27.567Z,6.60
2019-03-15T18:10:54.124Z,6.60
2019-03-15T18:13:20.573Z,6.60
2019-03-15T18:15:47.318Z,6.60
2019-03-15T18:18:14.175Z,6.60
2019-03-15T18:20:40.849Z,6.50
2019-03-15T18:23:07.531Z,6.50
2019-03-15T18:25:33.995Z,6.50
2019-03-15T18:28:00.995Z,6.50
2019-03-15T18:30:28.023Z,6.50
2019-03-15T18:32:54.607Z,6.50
2019-03-15T18:35:33.051Z,6.40
2019-03-15T18:37:52.246Z,6.40
2019-03-15T18:40:19.125Z,6.40
2019-03-15T18:42:45.598Z,6.40
2019-03-15T18:45:16.125Z,6.40
2019-03-15T18:47:43.803Z,6.40
2019-03-15T18:50:14.061Z,6.40
2019-03-15T18:52:40.446Z,6.30
2019-03-15T18:55:08.000Z,6.30
2019-03-15T18:57:34.430Z,6.30
2019-03-15T19:00:04.164Z,6.30
2019-03-15T19:02:31.750Z,6.30
2019-03-15T19:04:58.238Z,6.30
2019-03-15T19:07:24.675Z,6.30
2019-03-15T19:09:51.125Z,6.40
2019-03-15T19:12:19.063Z,6.30
2019-03-15T19:14:45.524Z,6.30
2019-03-15T19:17:12.171Z,6.40
2019-03-15T19:19:38.526Z,6.30
2019-03-15T19:22:05.061Z,6.40
2019-03-15T19:24:31.415Z,6.30
2019-03-15T19:26:57.895Z,6.40
2019-03-15T19:29:24.264Z,6.40
2019-03-15T19:31:50.726Z,6.40
2019-03-15T19:34:17.071Z,6.40
2019-03-15T19:36:43.644Z,6.50
2019-03-15T19:39:10.062Z,6.50
2019-03-15T19:41:37.219Z,6.50
2019-03-15T19:44:03.808Z,6.50
2019-03-15T19:46:30.280Z,6.60
2019-03-15T19:48:56.717Z,6.60
2019-03-15T19:51:23.260Z,6.60
2019-03-15T19:53:51.408Z,6.60
2019-03-15T19:56:18.266Z,6.60
2019-03-15T19:58:44.703Z,6.80
2019-03-15T20:01:11.170Z,6.80
2019-03-15T20:03:43.910Z,6.80
2019-03-15T20:06:06.117Z,6.70
2019-03-15T20:08:32.574Z,6.70
2019-03-15T20:10:59.044Z,6.70
2019-03-15T20:13:26.638Z,6.70
2019-03-15T20:15:54.154Z,6.60
2019-03-15T20:18:21.258Z,6.70
2019-03-15T20:20:47.900Z,6.70
2019-03-15T20:23:14.344Z,6.70
2019-03-15T20:25:40.870Z,6.70
2019-03-15T20:28:07.446Z,6.70
2019-03-15T20:30:34.123Z,6.80
2019-03-15T20:33:00.881Z,6.80
2019-03-15T20:35:27.395Z,6.90
2019-03-15T20:37:53.934Z,6.90
2019-03-15T20:40:20.681Z,7.00
2019-03-15T20:42:47.122Z,6.90
2019-03-15T20:45:25.408Z,6.90
2019-03-15T20:47:51.967Z,7.00
2019-03-15T20:50:18.513Z,7.00
2019-03-15T20:52:45.039Z,7.00
2019-03-15T20:55:11.447Z,7.00
2019-03-15T20:57:37.891Z,7.00
2019-03-15T21:00:11.544Z,7.00
2019-03-15T21:02:38.115Z,7.10
2019-03-15T21:05:08.026Z,7.00
2019-03-15T21:07:34.126Z,7.00
2019-03-15T21:10:00.648Z,6.90
2019-03-15T21:12:27.188Z,6.90
2019-03-15T21:14:53.576Z,6.90
2019-03-15T21:17:20.072Z,6.80
2019-03-15T21:19:46.566Z,6.70
2019-03-15T21:22:13.037Z,6.70
2019-03-15T21:24:39.433Z,6.60
2019-03-15T21:27:05.946Z,6.60
2019-03-15T21:29:32.792Z,6.50
2019-03-15T21:31:59.820Z,6.60
2019-03-15T21:34:26.337Z,6.50
2019-03-15T21:36:53.167Z,6.50
2019-03-15T21:39:19.556Z,6.40
2019-03-15T21:41:46.041Z,6.40
2019-03-15T21:44:12.495Z,6.40
2019-03-15T21:46:38.908Z,6.40
2019-03-15T21:49:05.334Z,6.30
2019-03-15T21:51:31.675Z,6.30
2019-03-15T21:53:58.111Z,6.40
2019-03-15T21:56:24.476Z,6.40
2019-03-15T21:58:50.946Z,6.40
2019-03-15T22:01:17.326Z,6.40
2019-03-15T22:03:43.765Z,6.30
2019-03-15T22:06:10.315Z,6.40
2019-03-15T22:08:36.801Z,6.40
2019-03-15T22:11:03.323Z,6.40
2019-03-15T22:13:29.809Z,6.40
2019-03-15T22:15:56.223Z,6.40
2019-03-15T22:18:22.631Z,6.50
2019-03-15T22:20:49.038Z,6.40
2019-03-15T22:23:15.494Z,6.50
2019-03-15T22:25:41.943Z,6.50
2019-03-15T22:28:08.368Z,6.40
2019-03-15T22:30:34.831Z,6.40
2019-03-15T22:33:01.290Z,6.40
2019-03-15T22:35:27.719Z,6.30
2019-03-15T22:37:54.160Z,6.40
2019-03-15T22:40:20.598Z,6.40
2019-03-15T22:42:47.010Z,6.40
2019-03-15T22:45:13.497Z,6.40
2019-03-15T22:47:41.028Z,6.30
2019-03-15T22:50:10.281Z,6.30
2019-03-15T22:52:36.661Z,6.20
2019-03-15T22:55:04.185Z,6.20
2019-03-15T22:57:30.613Z,6.20
2019-03-15T22:59:57.979Z,6.20
2019-03-15T23:02:24.408Z,6.20
2019-03-15T23:04:50.737Z,6.30
2019-03-15T23:07:17.123Z,6.30
2019-03-15T23:09:43.490Z,6.30
2019-03-15T23:12:09.944Z,6.30
2019-03-15T23:14:36.365Z,6.30
2019-03-15T23:17:02.798Z,6.40
2019-03-15T23:19:29.208Z,6.40
2019-03-15T23:21:55.609Z,6.40
2019-03-15T23:24:22.032Z,6.50
2019-03-15T23:26:48.474Z,6.50
2019-03-15T23:29:14.909Z,6.50
2019-03-15T23:31:43.933Z,6.50
2019-03-15T23:34:09.678Z,6.50
2019-03-15T23:36:36.204Z,6.50
2019-03-15T23:39:05.181Z,6.60
2019-03-15T23:41:31.568Z,6.60
2019-03-15T23:43:58.026Z,6.60
2019-03-15T23:46:24.414Z,6.70
2019-03-15T23:48:50.849Z,6.60
2019-03-15T23:51:17.244Z,6.70
2019-03-15T23:53:43.693Z,6.70
2019-03-15T23:56:10.147Z,6.60
2019-03-15T23:58:36.584Z,6.50
